createdAt,value
2022-12-12T00:01:37.760Z,7.68
2022-12-12T00:03:11.147Z,7.45
2022-12-12T00:04:44.401Z,6.85
2022-12-12T00:06:18.050Z,8.18
2022-12-12T00:07:51.462Z,7.00
2022-12-12T00:09:24.654Z,5.63
2022-12-12T00:10:57.274Z,6.57
2022-12-12T00:12:30.680Z,6.68
2022-12-12T00:14:05.348Z,7.35
2022-12-12T00:15:38.600Z,7.10
2022-12-12T00:17:13.158Z,7.00
2022-12-12T00:18:46.653Z,7.28
2022-12-12T00:20:20.209Z,5.70
2022-12-12T00:21:53.327Z,4.28
2022-12-12T00:23:27.197Z,5.95
2022-12-12T00:25:00.679Z,5.63
2022-12-12T00:26:36.106Z,4.72
2022-12-12T00:28:09.310Z,4.70
2022-12-12T00:29:42.586Z,4.60
2022-12-12T00:31:16.546Z,8.75
2022-12-12T00:32:51.305Z,11.93
2022-12-12T00:34:24.479Z,12.98
2022-12-12T00:35:58.300Z,7.68
2022-12-12T00:37:31.683Z,10.25
2022-12-12T00:39:05.709Z,7.75
2022-12-12T00:40:38.949Z,8.77
2022-12-12T00:42:12.128Z,7.05
2022-12-12T00:43:45.709Z,5.53
2022-12-12T00:45:19.342Z,5.63
2022-12-12T00:46:52.779Z,5.32
2022-12-12T00:48:27.773Z,4.88
2022-12-12T00:50:01.209Z,4.80
2022-12-12T00:51:34.706Z,6.22
2022-12-12T00:53:07.919Z,4.88
2022-12-12T00:54:41.059Z,5.72
2022-12-12T00:56:16.718Z,4.25
2022-12-12T00:57:50.162Z,5.22
2022-12-12T00:59:23.342Z,5.32
2022-12-12T01:00:56.475Z,4.57
2022-12-12T01:02:29.914Z,3.85
2022-12-12T01:04:06.461Z,4.13
2022-12-12T01:05:39.749Z,3.05
2022-12-12T01:07:12.892Z,3.80
2022-12-12T01:08:46.474Z,3.90
2022-12-12T01:10:20.432Z,3.63
2022-12-12T01:11:53.590Z,4.15
2022-12-12T01:13:27.148Z,3.85
2022-12-12T01:15:00.579Z,3.88
2022-12-12T01:16:34.485Z,4.43
2022-12-12T01:18:08.333Z,4.13
2022-12-12T01:19:43.069Z,4.32
2022-12-12T01:21:18.446Z,4.00
2022-12-12T01:22:51.993Z,3.67
2022-12-12T01:24:25.302Z,4.20
2022-12-12T01:26:02.350Z,4.93
2022-12-12T01:27:35.645Z,5.05
2022-12-12T01:29:09.142Z,5.45
2022-12-12T01:30:42.329Z,5.18
2022-12-12T01:32:15.481Z,5.18
2022-12-12T01:33:48.828Z,6.03
2022-12-12T01:35:24.021Z,5.63
2022-12-12T01:36:57.257Z,6.20
2022-12-12T01:38:30.462Z,5.53
2022-12-12T01:40:06.113Z,5.55
2022-12-12T01:41:39.557Z,5.68
2022-12-12T01:43:12.766Z,5.55
2022-12-12T01:44:49.636Z,5.97
2022-12-12T01:46:44.490Z,5.68
2022-12-12T01:48:16.878Z,6.15
2022-12-12T01:49:54.945Z,5.60
2022-12-12T01:51:29.858Z,5.35
2022-12-12T01:53:03.349Z,5.95
2022-12-12T01:54:40.939Z,5.93
2022-12-12T01:56:17.156Z,6.43
2022-12-12T01:57:53.829Z,5.60
2022-12-12T01:59:28.338Z,6.78
2022-12-12T02:01:01.355Z,6.47
2022-12-12T02:02:34.671Z,7.65
2022-12-12T02:04:09.370Z,7.38
2022-12-12T02:05:47.176Z,7.72
2022-12-12T02:07:21.700Z,6.55
2022-12-12T02:08:58.442Z,7.70
2022-12-12T02:10:31.846Z,6.93
2022-12-12T02:12:06.987Z,8.02
2022-12-12T02:13:39.415Z,6.97
2022-12-12T02:15:13.751Z,6.45
2022-12-12T02:17:05.831Z,6.40
2022-12-12T02:18:46.026Z,6.35
2022-12-12T02:20:54.491Z,6.97
2022-12-12T02:22:43.472Z,13.50
2022-12-12T02:24:44.138Z,9.88
2022-12-12T02:26:47.429Z,8.75
2022-12-12T02:28:41.302Z,6.82
2022-12-12T02:30:24.601Z,6.82
2022-12-12T02:32:06.538Z,5.97
2022-12-12T02:33:43.777Z,5.85
2022-12-12T02:35:21.014Z,6.95
2022-12-12T02:37:04.037Z,6.88
2022-12-12T02:38:45.857Z,6.07
2022-12-12T02:40:24.134Z,6.35
2022-12-12T02:42:04.660Z,7.22
2022-12-12T02:43:46.398Z,6.75
2022-12-12T02:45:29.009Z,6.32
2022-12-12T02:47:09.807Z,6.90
2022-12-12T02:48:49.845Z,10.10
2022-12-12T02:50:26.283Z,9.43
2022-12-12T02:52:02.340Z,8.80
2022-12-12T02:53:36.065Z,6.93
2022-12-12T02:55:10.731Z,7.18
2022-12-12T02:56:48.102Z,7.82
2022-12-12T02:58:21.555Z,7.03
2022-12-12T02:59:58.652Z,6.93
2022-12-12T03:01:45.560Z,7.03
2022-12-12T03:03:55.452Z,6.55
2022-12-12T03:06:00.954Z,7.13
2022-12-12T03:07:50.681Z,9.38
2022-12-12T03:09:35.321Z,17.83
2022-12-12T03:11:11.388Z,6.95
2022-12-12T03:13:00.797Z,6.00
2022-12-12T03:14:48.554Z,13.48
2022-12-12T03:16:27.633Z,34.47
2022-12-12T03:18:12.456Z,7.15
2022-12-12T03:19:57.313Z,6.88
2022-12-12T03:21:39.556Z,7.15
2022-12-12T03:23:17.266Z,7.80
2022-12-12T03:24:56.849Z,7.75
2022-12-12T03:26:35.631Z,8.27
2022-12-12T03:28:14.597Z,8.27
2022-12-12T03:29:54.463Z,8.55
2022-12-12T03:31:32.549Z,9.45
2022-12-12T03:33:16.010Z,9.13
2022-12-12T03:34:56.913Z,10.18
2022-12-12T03:36:36.602Z,11.73
2022-12-12T03:38:13.923Z,15.95
2022-12-12T03:39:52.111Z,13.15
2022-12-12T03:41:30.580Z,10.90
2022-12-12T03:43:08.600Z,9.23
2022-12-12T03:44:48.011Z,9.65
2022-12-12T03:46:26.452Z,9.93
2022-12-12T03:48:06.258Z,11.93
2022-12-12T03:49:43.569Z,13.00
2022-12-12T03:51:24.843Z,10.55
2022-12-12T03:53:03.074Z,7.82
2022-12-12T03:54:43.711Z,7.78
2022-12-12T03:56:32.851Z,7.60
2022-12-12T03:58:11.209Z,7.32
2022-12-12T03:59:48.586Z,9.30
2022-12-12T04:01:26.348Z,12.20
2022-12-12T04:03:07.264Z,15.95
2022-12-12T04:04:48.524Z,19.30
2022-12-12T04:06:31.521Z,16.85
2022-12-12T04:08:09.844Z,22.08
2022-12-12T04:10:01.919Z,14.93
2022-12-12T04:11:58.995Z,29.05
2022-12-12T04:13:36.711Z,25.85
2022-12-12T04:15:26.874Z,27.67
2022-12-12T04:17:05.713Z,16.05
2022-12-12T04:18:44.274Z,11.05
2022-12-12T04:20:42.765Z,9.60
2022-12-12T04:22:42.823Z,10.70
2022-12-12T04:24:24.180Z,8.80
2022-12-12T04:26:29.092Z,7.85
2022-12-12T04:28:07.722Z,7.68
2022-12-12T04:29:47.876Z,6.78
2022-12-12T04:31:25.558Z,7.95
2022-12-12T04:33:06.957Z,8.10
2022-12-12T04:34:44.369Z,6.57
2022-12-12T04:36:21.839Z,7.00
2022-12-12T04:38:00.151Z,6.65
2022-12-12T04:39:36.498Z,6.65
2022-12-12T04:41:13.163Z,8.23
2022-12-12T04:42:52.821Z,5.63
2022-12-12T04:44:30.595Z,6.38
2022-12-12T04:46:09.224Z,6.00
2022-12-12T04:47:45.870Z,6.32
2022-12-12T04:49:23.469Z,7.00
2022-12-12T04:50:58.702Z,8.00
2022-12-12T04:52:34.715Z,6.95
2022-12-12T04:54:13.496Z,6.63
2022-12-12T04:55:52.739Z,6.40
2022-12-12T04:57:31.127Z,7.32
2022-12-12T04:59:05.256Z,7.50
2022-12-12T05:00:47.619Z,7.90
2022-12-12T05:02:29.791Z,7.38
2022-12-12T05:04:08.980Z,7.68
2022-12-12T05:05:47.866Z,7.80
2022-12-12T05:07:29.352Z,6.53
2022-12-12T05:09:02.851Z,7.07
2022-12-12T05:10:44.129Z,8.05
2022-12-12T05:12:17.612Z,7.95
2022-12-12T05:13:51.513Z,9.32
2022-12-12T05:15:26.245Z,8.55
2022-12-12T05:17:05.200Z,9.75
2022-12-12T05:18:38.458Z,9.32
2022-12-12T05:20:11.922Z,9.85
2022-12-12T05:21:45.124Z,9.75
2022-12-12T05:23:18.998Z,10.35
2022-12-12T05:24:52.135Z,9.90
2022-12-12T05:26:29.194Z,9.30
2022-12-12T05:28:02.319Z,9.13
2022-12-12T05:29:35.690Z,9.40
2022-12-12T05:31:08.934Z,9.52
2022-12-12T05:32:42.158Z,9.73
2022-12-12T05:34:15.349Z,10.45
2022-12-12T05:35:48.907Z,10.27
2022-12-12T05:37:22.132Z,10.15
2022-12-12T05:38:55.425Z,9.80
2022-12-12T05:40:28.938Z,10.55
2022-12-12T05:42:03.656Z,10.05
2022-12-12T05:43:37.251Z,10.32
2022-12-12T05:45:12.662Z,8.73
2022-12-12T05:46:45.988Z,10.70
2022-12-12T05:48:24.146Z,10.95
2022-12-12T05:49:57.744Z,14.60
2022-12-12T05:51:31.331Z,10.98
2022-12-12T05:53:04.590Z,13.38
2022-12-12T05:54:38.133Z,15.95
2022-12-12T05:56:12.676Z,12.05
2022-12-12T05:57:47.232Z,11.75
2022-12-12T05:59:20.399Z,12.25
2022-12-12T06:00:57.355Z,10.10
2022-12-12T06:02:34.788Z,11.55
2022-12-12T06:04:08.062Z,12.77
2022-12-12T06:05:41.254Z,12.35
2022-12-12T06:07:14.612Z,14.15
2022-12-12T06:08:47.762Z,12.77
2022-12-12T06:10:21.104Z,13.40
2022-12-12T06:11:55.346Z,14.90
2022-12-12T06:13:30.098Z,13.85
2022-12-12T06:15:03.266Z,15.45
2022-12-12T06:16:36.841Z,16.13
2022-12-12T06:18:12.263Z,18.25
2022-12-12T06:19:45.790Z,18.98
2022-12-12T06:21:19.315Z,23.30
2022-12-12T06:22:53.944Z,24.50
2022-12-12T06:24:27.234Z,19.35
2022-12-12T06:26:00.778Z,14.50
2022-12-12T06:27:33.963Z,15.60
2022-12-12T06:29:08.543Z,14.27
2022-12-12T06:30:41.812Z,13.68
2022-12-12T06:32:15.557Z,14.88
2022-12-12T06:33:48.728Z,14.55
2022-12-12T06:35:22.004Z,12.48
2022-12-12T06:36:55.312Z,13.13
2022-12-12T06:38:29.174Z,18.15
2022-12-12T06:40:02.394Z,11.10
2022-12-12T06:41:36.041Z,12.88
2022-12-12T06:43:09.238Z,13.02
2022-12-12T06:44:44.450Z,11.85
2022-12-12T06:46:20.040Z,11.88
2022-12-12T06:47:53.234Z,11.82
2022-12-12T06:49:26.384Z,12.13
2022-12-12T06:51:00.578Z,12.85
2022-12-12T06:52:33.944Z,11.40
2022-12-12T06:54:07.329Z,12.15
2022-12-12T06:55:43.663Z,16.65
2022-12-12T06:57:17.087Z,17.73
2022-12-12T06:58:50.616Z,19.65
2022-12-12T07:00:25.254Z,14.30
2022-12-12T07:01:58.779Z,10.18
2022-12-12T07:03:32.819Z,12.40
2022-12-12T07:05:08.037Z,12.85
2022-12-12T07:06:41.640Z,12.48
2022-12-12T07:08:15.060Z,12.50
2022-12-12T07:09:48.614Z,8.70
2022-12-12T07:11:23.769Z,9.23
2022-12-12T07:12:57.661Z,12.27
2022-12-12T07:14:30.924Z,10.57
2022-12-12T07:16:06.346Z,6.05
2022-12-12T07:17:39.805Z,5.45
2022-12-12T07:19:13.020Z,3.95
2022-12-12T07:20:47.320Z,7.68
2022-12-12T07:22:20.885Z,6.45
2022-12-12T07:23:54.109Z,7.53
2022-12-12T07:25:27.439Z,6.85
2022-12-12T07:27:00.597Z,6.35
2022-12-12T07:28:34.519Z,7.88
2022-12-12T07:30:08.645Z,5.45
2022-12-12T07:31:43.312Z,8.38
2022-12-12T07:33:18.261Z,6.60
2022-12-12T07:34:51.994Z,7.53
2022-12-12T07:36:25.143Z,8.50
2022-12-12T07:37:58.366Z,9.73
2022-12-12T07:39:31.983Z,6.65
2022-12-12T07:41:06.760Z,5.90
2022-12-12T07:42:40.141Z,5.28
2022-12-12T07:44:13.291Z,3.58
2022-12-12T07:45:46.586Z,4.07
2022-12-12T07:47:21.510Z,6.50
2022-12-12T07:48:55.231Z,7.00
2022-12-12T07:50:28.487Z,6.00
2022-12-12T07:52:01.723Z,6.93
2022-12-12T07:53:35.379Z,8.50
2022-12-12T07:55:09.238Z,10.90
2022-12-12T07:56:42.469Z,8.80
2022-12-12T07:58:15.570Z,5.18
2022-12-12T07:59:48.992Z,5.68
2022-12-12T08:01:24.224Z,4.13
2022-12-12T08:02:58.951Z,5.72
2022-12-12T08:04:32.182Z,4.95
2022-12-12T08:06:07.024Z,6.32
2022-12-12T08:07:40.208Z,4.95
2022-12-12T08:09:13.494Z,5.00
2022-12-12T08:10:46.701Z,6.15
2022-12-12T08:12:20.438Z,7.95
2022-12-12T08:13:54.357Z,6.63
2022-12-12T08:15:27.565Z,5.70
2022-12-12T08:17:00.850Z,6.90
2022-12-12T08:18:35.933Z,6.60
2022-12-12T08:20:10.327Z,7.22
2022-12-12T08:21:44.659Z,11.85
2022-12-12T08:23:17.881Z,10.50
2022-12-12T08:24:51.463Z,8.60
2022-12-12T08:26:25.970Z,9.43
2022-12-12T08:27:59.132Z,8.82
2022-12-12T08:29:32.322Z,7.28
2022-12-12T08:31:06.016Z,8.88
2022-12-12T08:32:39.162Z,6.32
2022-12-12T08:34:13.871Z,10.25
2022-12-12T08:35:47.354Z,6.90
2022-12-12T08:37:21.750Z,7.40
2022-12-12T08:38:55.090Z,6.68
2022-12-12T08:40:28.386Z,5.18
2022-12-12T08:42:01.592Z,6.90
2022-12-12T08:43:35.299Z,7.75
2022-12-12T08:45:09.140Z,15.98
2022-12-12T08:46:42.750Z,11.90
2022-12-12T08:48:15.960Z,8.40
2022-12-12T08:49:50.863Z,9.23
2022-12-12T08:51:24.211Z,7.85
2022-12-12T08:52:57.327Z,9.05
2022-12-12T08:54:30.534Z,7.25
2022-12-12T08:56:04.262Z,12.13
2022-12-12T08:57:37.509Z,14.82
2022-12-12T08:59:10.915Z,23.77
2022-12-12T09:00:44.232Z,26.67
2022-12-12T09:02:18.056Z,12.63
2022-12-12T09:03:52.677Z,11.98
2022-12-12T09:05:27.288Z,13.07
2022-12-12T09:07:04.892Z,12.88
2022-12-12T09:08:42.496Z,9.23
2022-12-12T09:10:15.724Z,18.40
2022-12-12T09:11:48.857Z,15.77
2022-12-12T09:13:22.069Z,13.93
2022-12-12T09:14:55.729Z,12.70
2022-12-12T09:16:30.145Z,9.20
2022-12-12T09:18:03.536Z,9.23
2022-12-12T09:19:36.888Z,8.30
2022-12-12T09:21:11.812Z,9.05
2022-12-12T09:22:45.186Z,8.93
2022-12-12T09:24:18.468Z,8.32
2022-12-12T09:25:52.324Z,8.85
2022-12-12T09:27:25.709Z,9.30
2022-12-12T09:28:58.954Z,4.65
2022-12-12T09:30:32.406Z,6.82
2022-12-12T10:24:11.783Z,9.20
2022-12-12T10:25:50.978Z,7.63
2022-12-12T10:27:25.443Z,9.30
2022-12-12T10:29:03.920Z,10.40
2022-12-12T10:30:53.547Z,13.20
2022-12-12T10:32:37.811Z,12.88
2022-12-12T10:34:26.330Z,12.80
2022-12-12T10:36:11.635Z,31.10
2022-12-12T10:37:53.991Z,16.42
2022-12-12T10:39:37.115Z,9.77
2022-12-12T10:41:19.200Z,6.68
2022-12-12T10:43:01.465Z,7.88
2022-12-12T10:45:06.029Z,12.18
2022-12-12T10:46:44.657Z,8.23
2022-12-12T10:48:17.944Z,8.85
2022-12-12T10:49:54.718Z,7.55
2022-12-12T10:51:32.088Z,7.47
2022-12-12T10:53:08.486Z,7.82
2022-12-12T10:54:47.958Z,7.15
2022-12-12T10:56:24.477Z,7.07
2022-12-12T10:58:03.824Z,8.27
2022-12-12T10:59:45.762Z,7.43
2022-12-12T11:01:38.461Z,9.55
2022-12-12T11:03:26.948Z,11.07
2022-12-12T11:05:17.389Z,7.68
2022-12-12T11:06:53.720Z,6.93
2022-12-12T11:08:29.937Z,8.38
2022-12-12T11:10:22.099Z,10.13
2022-12-12T11:12:00.979Z,12.73
2022-12-12T11:13:40.878Z,12.20
2022-12-12T11:15:18.609Z,9.85
2022-12-12T11:16:52.023Z,10.02
2022-12-12T11:18:26.458Z,7.15
2022-12-12T11:20:02.411Z,9.02
2022-12-12T11:21:37.464Z,10.52
2022-12-12T11:23:19.039Z,8.25
2022-12-12T11:24:53.458Z,9.38
2022-12-12T11:26:30.407Z,8.73
2022-12-12T11:28:06.872Z,8.15
2022-12-12T11:29:46.013Z,6.72
2022-12-12T11:31:24.454Z,6.05
2022-12-12T11:32:58.685Z,8.18
2022-12-12T11:34:35.035Z,6.68
2022-12-12T11:36:09.012Z,11.13
2022-12-12T11:37:51.321Z,10.57
2022-12-12T11:39:29.381Z,6.20
2022-12-12T11:41:05.550Z,13.05
2022-12-12T11:42:41.520Z,5.95
2022-12-12T11:44:25.748Z,5.93
2022-12-12T11:46:02.475Z,5.55
2022-12-12T11:47:42.185Z,5.13
2022-12-12T11:49:21.375Z,5.03
2022-12-12T11:50:54.544Z,6.72
2022-12-12T11:52:32.865Z,5.93
2022-12-12T11:54:13.242Z,5.55
2022-12-12T11:55:56.192Z,5.05
2022-12-12T11:57:49.864Z,8.45
2022-12-12T11:59:46.210Z,9.48
2022-12-12T12:01:28.469Z,11.82
2022-12-12T12:03:38.886Z,10.85
2022-12-12T12:05:25.114Z,10.57
2022-12-12T12:07:12.607Z,9.70
2022-12-12T12:09:00.546Z,8.35
2022-12-12T12:10:47.984Z,7.07
2022-12-12T12:12:28.334Z,11.70
2022-12-12T12:14:25.285Z,16.88
2022-12-12T12:16:09.679Z,16.00
2022-12-12T12:18:05.629Z,13.85
2022-12-12T12:19:47.333Z,9.57
2022-12-12T12:21:32.445Z,10.55
2022-12-12T12:23:21.498Z,10.63
2022-12-12T12:25:11.183Z,9.73
2022-12-12T12:26:54.700Z,8.68
2022-12-12T12:28:53.971Z,6.82
2022-12-12T12:30:34.885Z,16.42
2022-12-12T12:32:15.088Z,20.15
2022-12-12T12:34:03.744Z,14.93
2022-12-12T12:35:50.055Z,12.48
2022-12-12T12:37:36.151Z,11.15
2022-12-12T12:39:21.415Z,12.23
2022-12-12T12:41:16.369Z,12.98
2022-12-12T12:43:02.060Z,14.88
2022-12-12T12:44:47.785Z,16.65
2022-12-12T12:46:31.683Z,19.50
2022-12-12T12:48:11.329Z,15.63
2022-12-12T12:49:52.506Z,15.23
2022-12-12T12:51:30.849Z,13.60
2022-12-12T12:53:09.179Z,16.45
2022-12-12T12:54:46.869Z,13.77
2022-12-12T12:56:26.736Z,10.90
2022-12-12T12:58:04.430Z,16.52
2022-12-12T12:59:41.629Z,16.58
2022-12-12T13:01:18.951Z,18.33
2022-12-12T13:02:59.291Z,10.38
2022-12-12T13:04:37.963Z,10.38
2022-12-12T13:06:17.337Z,10.00
2022-12-12T13:07:58.300Z,11.60
2022-12-12T13:09:43.127Z,15.07
2022-12-12T13:11:22.697Z,13.68
2022-12-12T13:12:58.865Z,18.08
2022-12-12T13:14:41.017Z,14.32
2022-12-12T13:16:18.464Z,13.35
2022-12-12T13:18:01.311Z,9.15
2022-12-12T13:19:38.837Z,10.82
2022-12-12T13:21:21.552Z,12.90
2022-12-12T13:23:12.198Z,9.93
2022-12-12T13:24:56.308Z,52.13
2022-12-12T13:26:43.643Z,17.10
2022-12-12T13:28:19.836Z,14.82
2022-12-12T13:29:58.070Z,11.48
2022-12-12T13:32:09.181Z,14.88
2022-12-12T13:33:47.611Z,16.05
2022-12-12T13:35:29.023Z,14.55
2022-12-12T13:37:07.556Z,13.55
2022-12-12T13:38:42.406Z,11.25
2022-12-12T13:40:26.763Z,13.20
2022-12-12T13:42:02.580Z,22.40
2022-12-12T13:43:46.961Z,16.52
2022-12-12T13:45:46.142Z,12.10
2022-12-12T13:47:58.362Z,14.48
2022-12-12T13:49:48.983Z,14.95
2022-12-12T13:51:36.793Z,14.93
2022-12-12T13:53:20.417Z,13.27
2022-12-12T13:54:58.319Z,14.48
2022-12-12T13:56:35.773Z,11.32
2022-12-12T13:58:20.896Z,13.60
2022-12-12T14:00:21.965Z,12.95
2022-12-12T14:01:57.235Z,13.02
2022-12-12T14:03:32.395Z,25.05
2022-12-12T14:05:17.199Z,19.83
2022-12-12T14:07:01.684Z,20.10
2022-12-12T14:08:38.859Z,17.73
2022-12-12T14:10:21.469Z,13.30
2022-12-12T14:11:54.719Z,14.55
2022-12-12T14:13:44.983Z,16.00
2022-12-12T14:15:28.114Z,15.57
2022-12-12T14:17:02.901Z,14.63
2022-12-12T14:18:40.963Z,15.88
2022-12-12T14:20:27.727Z,17.38
2022-12-12T14:22:00.939Z,18.88
2022-12-12T14:23:36.890Z,18.58
2022-12-12T14:25:21.654Z,15.93
2022-12-12T14:26:55.078Z,17.17
2022-12-12T14:28:29.764Z,21.65
2022-12-12T14:30:03.340Z,15.90
2022-12-12T14:31:42.926Z,12.32
2022-12-12T14:33:58.541Z,17.75
2022-12-12T14:35:42.659Z,19.38
2022-12-12T14:37:47.008Z,19.02
2022-12-12T14:39:52.697Z,18.02
2022-12-12T14:41:35.877Z,13.77
2022-12-12T14:43:21.985Z,11.73
2022-12-12T14:44:56.467Z,13.45
2022-12-12T14:46:31.624Z,14.90
2022-12-12T14:48:22.627Z,11.95
2022-12-12T14:50:10.774Z,14.45
2022-12-12T14:51:46.763Z,10.52
2022-12-12T14:53:22.822Z,12.38
2022-12-12T14:54:56.051Z,14.55
2022-12-12T14:56:33.141Z,19.17
2022-12-12T14:58:06.503Z,13.15
2022-12-12T14:59:42.648Z,15.40
2022-12-12T15:01:20.836Z,13.85
2022-12-12T15:02:54.768Z,15.45
2022-12-12T15:04:32.667Z,13.20
2022-12-12T15:06:37.700Z,12.70
2022-12-12T15:08:21.002Z,16.23
2022-12-12T15:09:54.398Z,14.05
2022-12-12T15:11:31.823Z,13.98
2022-12-12T15:13:21.002Z,15.15
2022-12-12T15:14:57.127Z,19.67
2022-12-12T15:16:42.730Z,15.93
2022-12-12T15:18:22.323Z,21.20
2022-12-12T15:19:59.793Z,16.83
2022-12-12T15:21:34.262Z,17.10
2022-12-12T15:23:09.182Z,20.15
2022-12-12T15:24:44.391Z,12.93
2022-12-12T15:26:20.247Z,17.23
2022-12-12T15:27:56.810Z,12.52
2022-12-12T15:29:32.231Z,13.88
2022-12-12T15:31:07.267Z,14.90
2022-12-12T15:32:41.555Z,15.60
2022-12-12T15:34:37.112Z,14.80
2022-12-12T15:36:27.936Z,14.52
2022-12-12T15:38:03.804Z,16.80
2022-12-12T15:39:39.777Z,11.93
2022-12-12T15:41:16.180Z,11.85
2022-12-12T15:42:54.604Z,11.68
2022-12-12T15:44:28.701Z,18.77
2022-12-12T15:46:06.981Z,17.15
2022-12-12T15:47:40.338Z,16.38
2022-12-12T15:49:39.142Z,17.42
2022-12-12T15:51:18.325Z,11.63
2022-12-12T15:53:06.817Z,17.15
2022-12-12T15:54:47.527Z,17.50
2022-12-12T15:56:28.869Z,18.95
2022-12-12T15:58:02.713Z,16.70
2022-12-12T15:59:36.243Z,15.48
2022-12-12T16:01:20.417Z,12.82
2022-12-12T16:03:03.473Z,13.88
2022-12-12T16:04:37.122Z,20.55
2022-12-12T16:06:18.276Z,16.60
2022-12-12T16:07:51.927Z,19.08
2022-12-12T16:09:30.049Z,24.63
2022-12-12T16:11:05.933Z,27.17
2022-12-12T16:13:23.392Z,23.42
2022-12-12T16:14:57.071Z,19.85
2022-12-12T16:16:54.590Z,19.73
2022-12-12T16:18:29.184Z,18.65
2022-12-12T16:20:06.520Z,18.58
2022-12-12T16:22:03.624Z,21.92
2022-12-12T16:23:43.817Z,23.02
2022-12-12T16:25:22.014Z,18.80
2022-12-12T16:26:59.663Z,17.15
2022-12-12T16:28:34.814Z,17.95
2022-12-12T16:30:09.462Z,14.60
2022-12-12T16:31:45.348Z,13.55
2022-12-12T16:33:26.314Z,15.45
2022-12-12T16:35:00.138Z,13.57
2022-12-12T16:36:40.022Z,15.20
2022-12-12T16:38:16.991Z,21.33
2022-12-12T16:39:50.355Z,20.48
2022-12-12T16:41:23.662Z,22.50
2022-12-12T16:43:10.819Z,18.70
2022-12-12T16:44:47.850Z,21.88
2022-12-12T16:46:23.860Z,15.07
2022-12-12T16:47:59.080Z,18.58
2022-12-12T16:49:32.790Z,14.18
2022-12-12T16:51:08.687Z,11.90
2022-12-12T16:52:42.118Z,13.77
2022-12-12T16:54:18.063Z,12.77
2022-12-12T16:55:54.251Z,14.80
2022-12-12T16:57:27.434Z,15.02
2022-12-12T16:59:00.978Z,15.57
2022-12-12T17:00:35.684Z,18.65
2022-12-12T17:02:20.063Z,15.05
2022-12-12T17:03:54.140Z,20.55
2022-12-12T17:05:30.393Z,15.05
2022-12-12T17:07:08.034Z,14.40
2022-12-12T17:08:42.040Z,13.88
2022-12-12T17:10:16.993Z,12.30
2022-12-12T17:11:50.559Z,18.83
2022-12-12T17:13:25.644Z,12.63
2022-12-12T17:14:59.032Z,14.45
2022-12-12T17:16:33.890Z,13.85
2022-12-12T17:18:07.291Z,13.25
2022-12-12T17:19:40.547Z,13.52
2022-12-12T17:21:13.987Z,9.25
2022-12-12T17:22:47.711Z,14.27
2022-12-12T17:24:21.765Z,13.52
2022-12-12T17:26:02.501Z,15.10
2022-12-12T17:27:37.731Z,15.63
2022-12-12T17:29:11.647Z,18.48
2022-12-12T17:30:45.775Z,13.52
2022-12-12T17:32:24.367Z,14.65
2022-12-12T17:33:58.252Z,13.57
2022-12-12T17:35:31.671Z,13.70
2022-12-12T17:37:05.066Z,17.33
2022-12-12T17:38:39.179Z,15.98
2022-12-12T17:40:14.218Z,14.27
2022-12-12T17:41:50.168Z,16.77
2022-12-12T17:43:25.291Z,11.32
2022-12-12T17:44:58.617Z,14.13
2022-12-12T17:46:33.302Z,7.28
2022-12-12T17:48:08.451Z,9.90
2022-12-12T17:49:42.652Z,18.55
2022-12-12T17:51:18.521Z,15.70
2022-12-12T17:52:52.836Z,19.58
2022-12-12T17:54:26.879Z,23.70
2022-12-12T17:56:07.677Z,16.23
2022-12-12T17:57:41.475Z,14.73
2022-12-12T17:59:16.066Z,22.45
2022-12-12T18:00:49.764Z,14.90
2022-12-12T18:02:23.351Z,21.10
2022-12-12T18:03:59.819Z,14.43
2022-12-12T18:05:33.551Z,16.98
2022-12-12T18:07:07.492Z,26.50
2022-12-12T18:08:42.206Z,21.08
2022-12-12T18:10:15.827Z,19.42
2022-12-12T18:11:49.277Z,28.00
2022-12-12T18:13:22.536Z,27.98
2022-12-12T18:14:56.195Z,19.02
2022-12-12T18:16:32.180Z,12.63
2022-12-12T18:18:05.793Z,18.92
2022-12-12T18:19:40.523Z,15.25
2022-12-12T18:21:29.240Z,13.45
2022-12-12T18:23:09.116Z,12.68
2022-12-12T18:24:42.258Z,11.20
2022-12-12T18:26:21.746Z,12.23
2022-12-12T18:27:56.017Z,13.82
2022-12-12T18:29:29.571Z,14.43
2022-12-12T18:31:03.059Z,20.65
2022-12-12T18:32:36.886Z,14.18
2022-12-12T18:34:11.013Z,11.88
2022-12-12T18:35:46.668Z,15.52
2022-12-12T18:37:20.304Z,18.05
2022-12-12T18:38:53.956Z,14.63
2022-12-12T18:40:28.036Z,13.55
2022-12-12T18:42:01.570Z,13.55
2022-12-12T18:43:35.873Z,14.35
2022-12-12T18:45:12.069Z,10.23
2022-12-12T18:46:45.263Z,12.63
2022-12-12T18:48:18.634Z,14.38
2022-12-12T18:49:52.720Z,13.23
2022-12-12T18:51:28.931Z,10.43
2022-12-12T18:53:02.182Z,11.15
2022-12-12T18:54:35.779Z,18.58
2022-12-12T18:56:10.260Z,18.42
2022-12-12T18:57:44.919Z,21.70
2022-12-12T18:59:18.504Z,13.48
2022-12-12T19:00:51.826Z,16.60
2022-12-12T19:02:25.956Z,12.25
2022-12-12T19:04:04.538Z,10.35
2022-12-12T19:05:42.121Z,10.30
2022-12-12T19:07:18.552Z,8.40
2022-12-12T19:08:52.300Z,9.25
2022-12-12T19:10:25.809Z,11.52
2022-12-12T19:12:02.663Z,9.57
2022-12-12T19:13:36.524Z,30.55
2022-12-12T19:15:19.187Z,16.17
2022-12-12T19:16:52.786Z,11.60
2022-12-12T19:18:26.065Z,9.38
2022-12-12T19:19:59.389Z,10.25
2022-12-12T19:21:33.849Z,9.50
2022-12-12T19:23:08.498Z,8.82
2022-12-12T19:24:41.771Z,6.20
2022-12-12T19:26:16.542Z,7.97
2022-12-12T19:27:51.513Z,7.10
2022-12-12T19:29:24.840Z,7.60
2022-12-12T19:30:58.255Z,8.88
2022-12-12T19:32:31.615Z,10.05
2022-12-12T19:34:05.915Z,10.10
2022-12-12T19:35:39.351Z,9.80
2022-12-12T19:37:12.619Z,8.43
2022-12-12T19:38:48.315Z,6.88
2022-12-12T19:40:21.568Z,7.18
2022-12-12T19:41:54.916Z,8.23
2022-12-12T19:43:30.376Z,7.45
2022-12-12T19:45:04.756Z,6.70
2022-12-12T19:46:37.948Z,5.93
2022-12-12T19:48:11.493Z,9.25
2022-12-12T19:49:44.740Z,8.35
2022-12-12T19:51:20.347Z,6.55
2022-12-12T19:52:53.630Z,7.05
2022-12-12T19:54:28.491Z,8.38
2022-12-12T19:56:01.954Z,6.47
2022-12-12T19:57:35.269Z,6.72
2022-12-12T19:59:09.500Z,9.50
2022-12-12T20:00:43.966Z,8.20
2022-12-12T20:02:17.168Z,7.35
2022-12-12T20:03:51.402Z,6.32
2022-12-12T20:05:26.258Z,5.65
2022-12-12T20:07:00.373Z,5.80
2022-12-12T20:08:34.613Z,9.77
2022-12-12T20:10:10.357Z,7.95
2022-12-12T20:11:45.478Z,7.63
2022-12-12T20:13:18.845Z,10.10
2022-12-12T20:14:51.954Z,9.30
2022-12-12T20:16:27.996Z,11.45
2022-12-12T20:18:02.897Z,9.90
2022-12-12T20:19:36.449Z,10.48
2022-12-12T20:21:20.451Z,16.58
2022-12-12T20:23:03.762Z,15.98
2022-12-12T20:24:37.474Z,17.52
2022-12-12T20:26:15.586Z,14.35
2022-12-12T20:27:48.789Z,31.15
2022-12-12T20:29:24.302Z,16.88
2022-12-12T20:31:05.852Z,17.25
2022-12-12T20:32:39.092Z,13.95
2022-12-12T20:34:13.143Z,13.65
2022-12-12T20:35:46.535Z,12.93
2022-12-12T20:37:20.410Z,8.88
2022-12-12T20:38:55.697Z,12.27
2022-12-12T20:40:28.959Z,9.80
2022-12-12T20:42:03.874Z,14.82
2022-12-12T20:43:37.468Z,16.70
2022-12-12T20:45:11.575Z,12.93
2022-12-12T20:46:47.232Z,17.98
2022-12-12T20:48:21.040Z,19.05
2022-12-12T20:49:54.833Z,16.58
2022-12-12T20:51:54.882Z,11.02
2022-12-12T20:53:23.803Z,13.85
2022-12-12T20:54:57.963Z,13.40
2022-12-12T20:56:31.731Z,12.05
2022-12-12T20:58:06.626Z,14.20
2022-12-12T20:59:40.297Z,14.15
2022-12-12T21:01:16.214Z,13.38
2022-12-12T21:02:49.456Z,15.65
2022-12-12T21:04:24.177Z,14.35
2022-12-12T21:05:57.570Z,16.50
2022-12-12T21:07:33.043Z,13.65
2022-12-12T21:09:09.732Z,11.90
2022-12-12T21:10:43.103Z,11.80
2022-12-12T21:12:16.594Z,12.60
2022-12-12T21:13:51.728Z,13.27
2022-12-12T21:15:24.910Z,13.57
2022-12-12T21:16:58.175Z,17.10
2022-12-12T21:18:32.612Z,18.70
2022-12-12T21:20:07.254Z,15.25
2022-12-12T21:21:41.556Z,13.75
2022-12-12T21:23:14.723Z,13.57
2022-12-12T21:24:48.210Z,11.77
2022-12-12T21:26:28.625Z,11.15
2022-12-12T21:28:02.499Z,11.52
2022-12-12T21:29:37.290Z,11.02
2022-12-12T21:31:11.829Z,9.25
2022-12-12T21:32:45.075Z,9.73
2022-12-12T21:34:18.404Z,10.90
2022-12-12T21:35:51.636Z,12.40
2022-12-12T21:37:24.827Z,11.75
2022-12-12T21:38:59.863Z,12.00
2022-12-12T21:40:33.114Z,12.63
2022-12-12T21:42:06.339Z,12.85
2022-12-12T21:43:39.810Z,13.35
2022-12-12T21:45:16.289Z,15.43
2022-12-12T21:46:49.837Z,13.40
2022-12-12T21:48:23.088Z,17.25
2022-12-12T21:49:56.362Z,19.23
2022-12-12T21:51:29.966Z,19.50
2022-12-12T21:53:20.306Z,19.02
2022-12-12T21:54:53.416Z,19.05
2022-12-12T21:56:26.786Z,17.02
2022-12-12T21:58:00.038Z,17.65
2022-12-12T21:59:33.184Z,20.45
2022-12-12T22:01:09.741Z,13.98
2022-12-12T22:02:48.336Z,9.80
2022-12-12T22:04:23.228Z,8.15
2022-12-12T22:05:56.420Z,7.10
2022-12-12T22:07:29.531Z,6.28